Time;durP1;ratioP1;P1;durP2;ratioP2;P2;SDS_P1;SDS_P2;PMS_P1;PMS_P2;Temp;Humidity;BMP_temperature;BMP_pressure;BME280_temperature;BME280_humidity;BME280_pressure;Samples;Min_cycle;Max_cycle;Signal;HPM_P1;HPM_P2
2022/08/04 00:01:36;;;;;;;7.03;2.00;;;23.80;99.90;;;;;;5011397;28;20758;-74
2022/08/04 00:04:08;;;;;;;3.10;1.50;;;23.70;99.90;;;;;;5011656;28;20553;-73
2022/08/04 00:06:49;;;;;;;5.30;2.10;;;23.70;99.90;;;;;;5016529;28;20475;-72
2022/08/04 00:09:21;;;;;;;4.10;2.03;;;23.60;99.90;;;;;;5008797;28;21091;-73
2022/08/04 00:11:52;;;;;;;2.23;1.67;;;23.70;99.90;;;;;;5011421;28;20954;-72
2022/08/04 00:14:20;;;;;;;3.97;2.23;;;23.60;99.90;;;;;;5016111;28;20548;-73
2022/08/04 00:16:49;;;;;;;8.67;2.77;;;23.50;99.90;;;;;;5010344;28;20746;-73
2022/08/04 00:19:21;;;;;;;5.03;2.27;;;23.50;99.90;;;;;;5008945;28;20495;-72
2022/08/04 00:21:52;;;;;;;21.07;2.67;;;23.60;99.90;;;;;;5019508;28;20559;-71
2022/08/04 00:24:21;;;;;;;2.70;2.10;;;23.50;99.90;;;;;;5027568;28;20699;-72
2022/08/04 00:26:53;;;;;;;7.63;2.10;;;23.60;99.90;;;;;;5023598;28;20463;-73
2022/08/04 00:29:21;;;;;;;7.23;1.90;;;23.50;99.90;;;;;;5020763;28;20559;-73
2022/08/04 00:31:48;;;;;;;2.73;2.13;;;23.40;99.90;;;;;;5007436;28;20832;-73
2022/08/04 00:34:16;;;;;;;11.83;2.40;;;23.40;99.90;;;;;;5017223;28;20465;-72
2022/08/04 00:36:43;;;;;;;6.40;4.93;;;23.50;99.90;;;;;;5011267;28;20461;-73
2022/08/04 00:39:13;;;;;;;4.33;2.30;;;23.50;99.90;;;;;;5015926;28;20496;-73
2022/08/04 00:41:59;;;;;;;4.43;2.13;;;23.50;99.90;;;;;;5006710;28;20937;-72
2022/08/04 00:44:37;;;;;;;6.80;3.17;;;23.50;99.90;;;;;;5009144;28;20474;-72
2022/08/04 00:47:16;;;;;;;3.07;2.17;;;23.40;99.90;;;;;;5008419;28;21267;-71
2022/08/04 00:50:03;;;;;;;8.40;2.93;;;23.40;99.90;;;;;;5013282;28;20480;-72
2022/08/04 00:52:40;;;;;;;4.10;2.33;;;23.40;99.90;;;;;;5014325;28;20840;-72
2022/08/04 00:55:28;;;;;;;3.20;2.57;;;23.30;99.90;;;;;;5006035;28;20464;-73
2022/08/04 00:58:15;;;;;;;8.50;2.50;;;23.20;99.90;;;;;;5003649;28;20472;-73
2022/08/04 01:00:51;;;;;;;4.60;3.10;;;23.20;99.90;;;;;;5012306;28;20488;-71
2022/08/04 01:03:24;;;;;;;5.50;2.83;;;23.20;99.90;;;;;;4995910;28;20461;-70
2022/08/04 01:06:01;;;;;;;3.70;2.47;;;23.20;99.90;;;;;;5010536;28;20465;-71
2022/08/04 01:08:49;;;;;;;3.00;1.87;;;23.10;99.90;;;;;;5009809;28;20490;-73
2022/08/04 01:11:26;;;;;;;2.20;1.73;;;23.10;99.90;;;;;;5003312;28;20453;-71
2022/08/04 01:14:09;;;;;;;2.33;1.90;;;23.10;99.90;;;;;;5009037;28;20427;-71
2022/08/04 01:16:44;;;;;;;11.00;2.73;;;23.20;99.90;;;;;;5004336;28;20454;-72
2022/08/04 01:19:36;;;;;;;5.43;2.97;;;23.20;99.90;;;;;;5010662;28;20848;-73
2022/08/04 01:22:26;;;;;;;5.23;2.13;;;23.10;99.90;;;;;;5008088;28;20460;-73
2022/08/04 01:25:16;;;;;;;8.27;2.90;;;23.00;99.90;;;;;;5010994;28;20454;-72
2022/08/04 01:28:00;;;;;;;23.83;4.10;;;23.10;99.90;;;;;;5015842;28;20461;-71
2022/08/04 01:30:32;;;;;;;3.20;1.93;;;22.90;99.90;;;;;;5000729;28;20489;-72
2022/08/04 01:33:03;;;;;;;3.33;2.00;;;22.80;99.90;;;;;;5010166;28;20453;-71
2022/08/04 01:35:36;;;;;;;6.13;2.07;;;22.80;99.90;;;;;;5003421;28;20893;-72
2022/08/04 01:38:13;;;;;;;2.30;1.60;;;22.80;99.90;;;;;;5006914;28;20481;-72
2022/08/04 01:40:42;;;;;;;7.23;2.00;;;22.70;99.90;;;;;;5004173;28;20485;-72
2022/08/04 01:43:11;;;;;;;6.13;2.17;;;22.60;99.90;;;;;;5010943;28;20469;-71
2022/08/04 01:45:41;;;;;;;3.27;2.20;;;22.50;99.90;;;;;;5013690;28;20989;-72
2022/08/04 01:48:09;;;;;;;5.40;2.27;;;22.60;99.90;;;;;;5008085;28;20492;-72
2022/08/04 01:50:36;;;;;;;8.73;2.67;;;22.60;99.90;;;;;;5011441;28;20484;-72
2022/08/04 01:53:04;;;;;;;3.93;2.10;;;22.60;99.90;;;;;;5012390;28;20867;-72
2022/08/04 01:55:32;;;;;;;11.17;2.60;;;22.60;99.90;;;;;;5006715;28;20755;-72
2022/08/04 01:58:00;;;;;;;4.37;2.40;;;22.60;99.90;;;;;;5009189;28;20495;-73
2022/08/04 02:00:28;;;;;;;5.87;2.50;;;22.50;99.90;;;;;;5005121;28;20520;-73
2022/08/04 02:02:57;;;;;;;3.27;2.23;;;22.60;99.90;;;;;;5014762;28;20994;-72
2022/08/04 02:05:26;;;;;;;6.13;2.63;;;22.60;99.90;;;;;;5020499;28;20469;-73
2022/08/04 02:08:04;;;;;;;3.07;2.00;;;22.60;99.90;;;;;;5006394;28;20457;-73
2022/08/04 02:10:44;;;;;;;5.50;2.73;;;22.60;99.90;;;;;;5014307;28;20488;-71
2022/08/04 02:13:21;;;;;;;4.33;2.33;;;22.70;99.90;;;;;;5018194;28;20451;-70
2022/08/04 02:15:57;;;;;;;7.17;3.10;;;22.70;99.90;;;;;;5015051;28;20460;-72
2022/08/04 02:18:33;;;;;;;2.70;1.57;;;22.60;99.90;;;;;;5020320;28;20492;-71
2022/08/04 02:21:02;;;;;;;12.83;2.70;;;22.60;99.90;;;;;;5019973;28;21025;-70
2022/08/04 02:23:34;;;;;;;6.07;2.43;;;22.70;99.90;;;;;;5013428;28;20460;-71
2022/08/04 02:26:03;;;;;;;3.43;2.00;;;22.80;99.90;;;;;;5012253;28;20469;-72
2022/08/04 02:28:35;;;;;;;4.10;2.17;;;22.80;99.90;;;;;;5014473;28;20464;-71
2022/08/04 02:31:21;;;;;;;6.20;4.03;;;22.80;99.90;;;;;;5010737;28;20771;-71
2022/08/04 02:34:01;;;;;;;3.80;2.77;;;22.80;99.90;;;;;;5012175;28;20452;-71
2022/08/04 02:36:34;;;;;;;4.93;2.90;;;22.80;99.90;;;;;;5012069;28;20549;-72
2022/08/04 02:39:02;;;;;;;10.93;2.90;;;22.80;99.90;;;;;;5010508;28;20500;-71
2022/08/04 02:41:31;;;;;;;6.77;2.23;;;22.80;99.90;;;;;;5004091;28;20591;-70
2022/08/04 02:44:00;;;;;;;5.93;2.77;;;22.90;99.90;;;;;;5012255;28;20970;-70
2022/08/04 02:46:28;;;;;;;3.70;2.50;;;23.00;99.90;;;;;;5012555;28;20478;-71
2022/08/04 02:48:57;;;;;;;6.10;2.30;;;23.00;99.90;;;;;;5016287;28;20974;-72
2022/08/04 02:51:27;;;;;;;10.53;3.23;;;22.90;99.90;;;;;;5016516;28;20646;-72
2022/08/04 02:53:55;;;;;;;7.80;2.17;;;22.90;99.90;;;;;;5017202;28;20849;-72
2022/08/04 02:56:23;;;;;;;5.23;2.33;;;22.90;99.90;;;;;;5016414;28;20556;-71
2022/08/04 02:58:53;;;;;;;5.23;2.47;;;22.80;99.90;;;;;;5006388;28;20485;-72
2022/08/04 03:01:21;;;;;;;4.03;2.60;;;22.70;99.90;;;;;;5011847;28;20461;-72
2022/08/04 03:03:58;;;;;;;4.77;3.53;;;22.70;99.90;;;;;;5003902;28;20777;-71
2022/08/04 03:07:06;;;;;;;5.10;2.27;;;22.70;99.90;;;;;;5007142;28;20488;-71
2022/08/04 03:10:15;;;;;;;4.80;3.57;;;22.60;99.90;;;;;;5005940;28;20481;-71
2022/08/04 03:13:09;;;;;;;3.50;2.13;;;22.70;99.90;;;;;;5021308;28;20468;-72
2022/08/04 03:15:58;;;;;;;6.90;3.30;;;22.50;99.90;;;;;;5020650;28;20469;-72
2022/08/04 03:18:51;;;;;;;3.40;2.20;;;22.10;99.90;;;;;;5020111;28;21015;-72
2022/08/04 03:22:02;;;;;;;4.50;2.03;;;22.00;99.90;;;;;;5028380;28;20437;-72
2022/08/04 03:25:07;;;;;;;10.07;2.60;;;21.90;99.90;;;;;;5020781;28;20464;-73
2022/08/04 03:28:02;;;;;;;5.77;2.17;;;21.80;99.90;;;;;;5028626;28;20468;-73
2022/08/04 03:30:37;;;;;;;3.67;2.30;;;21.90;99.90;;;;;;5021200;28;20483;-72
2022/08/04 03:33:36;;;;;;;8.33;2.50;;;21.90;99.90;;;;;;5016013;28;20461;-72
2022/08/04 03:36:40;;;;;;;7.63;2.97;;;21.80;99.90;;;;;;5016516;28;20895;-72
2022/08/04 03:39:39;;;;;;;4.90;2.17;;;21.90;99.90;;;;;;5010141;28;21352;-71
2022/08/04 03:42:34;;;;;;;6.07;2.53;;;22.00;99.90;;;;;;5015424;28;20785;-72
2022/08/04 03:45:35;;;;;;;4.73;2.37;;;22.00;99.90;;;;;;5012633;28;20670;-72
2022/08/04 03:48:18;;;;;;;3.97;2.73;;;22.10;99.90;;;;;;5024182;28;20862;-71
2022/08/04 03:54:02;;;;;;;15.33;2.93;;;22.20;99.90;;;;;;5026153;28;20769;-70
2022/08/04 03:56:51;;;;;;;5.43;3.03;;;22.20;99.90;;;;;;5016838;28;20470;-72
2022/08/04 03:59:49;;;;;;;8.53;3.77;;;22.20;99.90;;;;;;5014774;28;20488;-73
2022/08/04 04:03:00;;;;;;;7.33;3.30;;;22.30;99.90;;;;;;5015329;28;20464;-72
2022/08/04 04:05:59;;;;;;;10.60;4.90;;;22.40;99.90;;;;;;5009728;28;20470;-72
2022/08/04 04:09:02;;;;;;;6.30;3.00;;;22.40;99.90;;;;;;5017253;28;20464;-72
2022/08/04 04:12:02;;;;;;;5.47;2.70;;;22.50;99.90;;;;;;5023234;28;21007;-71
2022/08/04 04:14:50;;;;;;;9.37;3.50;;;22.40;99.90;;;;;;4991614;28;20483;-70
2022/08/04 04:17:49;;;;;;;5.30;3.17;;;22.40;99.90;;;;;;5006534;28;20469;-72
2022/08/04 04:20:47;;;;;;;5.53;2.80;;;22.40;99.90;;;;;;4987606;28;20497;-72
2022/08/04 04:23:30;;;;;;;10.17;2.27;;;22.40;99.90;;;;;;5017651;28;21039;-70
2022/08/04 04:26:07;;;;;;;5.37;2.60;;;22.40;99.90;;;;;;5017682;28;20987;-72
2022/08/04 04:28:50;;;;;;;4.63;2.93;;;22.30;99.90;;;;;;5028215;28;20815;-73
2022/08/04 04:31:42;;;;;;;9.07;2.27;;;22.20;99.90;;;;;;5026064;28;20528;-72
2022/08/04 04:34:21;;;;;;;10.70;5.77;;;22.20;99.90;;;;;;5029227;28;20503;-72
2022/08/04 04:36:58;;;;;;;4.43;4.03;;;22.00;99.90;;;;;;5029136;28;20448;-72
2022/08/04 04:39:34;;;;;;;17.20;7.00;;;21.90;99.90;;;;;;5028541;28;20570;-72
2022/08/04 04:42:24;;;;;;;5.10;3.20;;;22.00;99.90;;;;;;5028474;28;20455;-71
2022/08/04 04:45:05;;;;;;;10.10;3.73;;;22.00;99.90;;;;;;5028626;28;20460;-73
2022/08/04 04:47:47;;;;;;;5.50;4.10;;;22.00;99.90;;;;;;5029758;28;20812;-73
2022/08/04 04:50:20;;;;;;;8.10;2.80;;;22.00;99.90;;;;;;5030378;28;20488;-72
2022/08/04 04:52:53;;;;;;;8.23;3.20;;;22.00;99.90;;;;;;5028976;28;20448;-72
2022/08/04 04:55:25;;;;;;;3.27;2.40;;;22.10;99.90;;;;;;5043197;28;20436;-71
2022/08/04 04:57:56;;;;;;;5.87;2.03;;;22.00;99.90;;;;;;5037730;28;20453;-71
2022/08/04 05:00:26;;;;;;;7.17;2.97;;;22.00;99.90;;;;;;5045831;28;20464;-70
2022/08/04 05:03:36;;;;;;;5.03;2.80;;;22.00;99.90;;;;;;5050856;28;20455;-72
2022/08/04 05:06:20;;;;;;;16.53;3.70;;;22.10;99.90;;;;;;4943377;28;20964;-72
2022/08/04 05:09:27;;;;;;;7.77;3.33;;;22.30;99.90;;;;;;5022921;28;20469;-73
2022/08/04 05:12:26;;;;;;;7.10;3.00;;;22.60;99.90;;;;;;5025254;28;20799;-72
2022/08/04 05:14:58;;;;;;;5.07;3.40;;;22.80;99.90;;;;;;5024021;28;20449;-72
2022/08/04 05:17:28;;;;;;;12.73;4.53;;;22.70;99.90;;;;;;5026652;28;21104;-72
2022/08/04 05:20:01;;;;;;;7.67;2.67;;;23.10;99.90;;;;;;5020274;28;20886;-71
2022/08/04 05:22:31;;;;;;;8.43;3.13;;;23.30;99.90;;;;;;5021943;28;20476;-71
2022/08/04 05:25:06;;;;;;;6.73;3.57;;;23.40;99.90;;;;;;5017259;28;20453;-72
2022/08/04 05:27:39;;;;;;;7.20;3.20;;;23.50;99.90;;;;;;5024073;28;20940;-72
2022/08/04 05:30:08;;;;;;;11.90;3.50;;;23.50;99.90;;;;;;5020945;28;20556;-72
2022/08/04 05:32:45;;;;;;;8.40;3.30;;;23.30;99.90;;;;;;5025845;28;20433;-72
2022/08/04 05:35:19;;;;;;;13.70;3.63;;;23.50;99.90;;;;;;5020370;28;20467;-72
2022/08/04 05:37:47;;;;;;;8.43;4.00;;;23.70;99.90;;;;;;5027390;28;20456;-73
2022/08/04 05:40:17;;;;;;;16.90;3.80;;;23.90;99.90;;;;;;5023730;28;20488;-73
2022/08/04 05:42:44;;;;;;;8.77;2.50;;;24.30;99.90;;;;;;5024458;28;20445;-73
2022/08/04 05:45:13;;;;;;;10.17;3.20;;;24.70;99.90;;;;;;5021404;28;20473;-73
2022/08/04 05:47:40;;;;;;;4.43;3.00;;;25.20;99.90;;;;;;5032693;28;20452;-72
2022/08/04 05:50:08;;;;;;;6.80;2.87;;;25.20;99.90;;;;;;5027046;28;20456;-73
2022/08/04 05:52:37;;;;;;;7.17;4.07;;;25.10;99.90;;;;;;5011870;28;20461;-72
2022/08/04 05:55:06;;;;;;;9.33;5.03;;;25.20;99.90;;;;;;5023493;28;20440;-73
2022/08/04 05:57:33;;;;;;;9.90;3.90;;;25.40;99.90;;;;;;5020016;28;20466;-73
2022/08/04 06:00:05;;;;;;;5.63;3.20;;;25.80;99.90;;;;;;5026073;28;20598;-73
2022/08/04 06:02:34;;;;;;;7.60;3.50;;;26.20;99.90;;;;;;5039600;22;20438;-72
2022/08/04 06:05:04;;;;;;;10.83;3.60;;;26.60;99.90;;;;;;5016745;28;20472;-73
2022/08/04 06:07:31;;;;;;;6.53;3.00;;;27.00;99.90;;;;;;5023672;28;20853;-72
2022/08/04 06:10:00;;;;;;;4.30;2.53;;;27.50;99.90;;;;;;5017008;28;20451;-72
2022/08/04 06:12:32;;;;;;;6.60;2.67;;;27.80;99.90;;;;;;5028597;28;21142;-72
2022/08/04 06:15:01;;;;;;;9.53;3.30;;;28.00;99.90;;;;;;5021506;28;20459;-72
2022/08/04 06:17:32;;;;;;;13.33;3.40;;;28.40;99.90;;;;;;5020981;28;20460;-72
2022/08/04 06:20:00;;;;;;;10.77;3.60;;;28.90;99.90;;;;;;5022976;28;20484;-73
2022/08/04 06:22:30;;;;;;;3.63;3.10;;;29.00;99.90;;;;;;5016893;28;20605;-73
2022/08/04 06:25:03;;;;;;;18.20;6.23;;;29.10;99.90;;;;;;5021047;28;20444;-73
2022/08/04 06:27:31;;;;;;;8.83;3.53;;;29.30;99.90;;;;;;5022771;28;20789;-73
2022/08/04 06:29:59;;;;;;;8.60;3.70;;;29.20;99.90;;;;;;5020775;28;20471;-73
2022/08/04 06:32:35;;;;;;;4.83;3.00;;;29.40;99.90;;;;;;5023399;28;20477;-73
2022/08/04 06:35:05;;;;;;;7.33;4.10;;;29.80;99.90;;;;;;5021231;28;20538;-72
2022/08/04 06:37:33;;;;;;;9.10;3.53;;;30.50;99.90;;;;;;5022721;28;20459;-71
2022/08/04 06:40:02;;;;;;;9.23;2.80;;;30.30;99.90;;;;;;5024201;28;20484;-72
2022/08/04 06:42:30;;;;;;;5.33;3.67;;;30.80;99.90;;;;;;5025026;28;20974;-71
2022/08/04 06:44:59;;;;;;;5.40;3.60;;;31.20;99.90;;;;;;5018158;28;20623;-72
2022/08/04 06:47:27;;;;;;;8.63;3.40;;;30.90;99.90;;;;;;5019385;28;20455;-72
2022/08/04 06:49:56;;;;;;;16.40;4.27;;;30.90;99.90;;;;;;5020447;28;20992;-72
2022/08/04 06:52:23;;;;;;;14.03;3.50;;;31.50;99.90;;;;;;5022363;28;21230;-72
2022/08/04 06:54:52;;;;;;;5.60;3.87;;;32.10;99.90;;;;;;5024890;28;20452;-72
2022/08/04 06:57:24;;;;;;;8.00;2.63;;;32.00;99.90;;;;;;5019982;28;20587;-73
2022/08/04 06:59:56;;;;;;;5.20;3.30;;;32.20;99.90;;;;;;5023468;28;20486;-72
2022/08/04 07:02:27;;;;;;;11.13;4.80;;;32.90;99.90;;;;;;5027227;28;20472;-72
2022/08/04 07:04:56;;;;;;;3.00;2.57;;;32.90;99.90;;;;;;5013831;28;20660;-73
2022/08/04 07:07:24;;;;;;;8.50;3.53;;;33.40;99.90;;;;;;5026679;28;20463;-73
2022/08/04 07:09:52;;;;;;;4.93;2.83;;;33.50;99.90;;;;;;5024056;28;20449;-74
2022/08/04 07:12:21;;;;;;;22.23;3.80;;;33.50;99.90;;;;;;5026554;28;20987;-72
2022/08/04 07:14:49;;;;;;;5.80;3.10;;;33.90;99.90;;;;;;5026705;28;21315;-71
2022/08/04 07:17:17;;;;;;;6.03;4.30;;;34.50;99.90;;;;;;5028381;28;20445;-72
2022/08/04 07:19:44;;;;;;;7.37;2.83;;;34.80;99.90;;;;;;5024143;28;20498;-72
2022/08/04 07:22:11;;;;;;;11.20;3.17;;;35.70;99.90;;;;;;5027492;28;20465;-72
2022/08/04 07:24:39;;;;;;;3.07;2.80;;;35.70;98.60;;;;;;5026913;28;20452;-72
2022/08/04 07:27:06;;;;;;;13.10;3.00;;;35.40;98.30;;;;;;5026984;28;20471;-71
2022/08/04 07:29:35;;;;;;;6.80;2.73;;;35.60;98.40;;;;;;5028198;28;20448;-72
2022/08/04 07:32:03;;;;;;;3.53;2.50;;;36.20;96.20;;;;;;5029791;28;20492;-71
2022/08/04 07:34:31;;;;;;;4.57;2.23;;;35.90;94.30;;;;;;5027157;28;20453;-72
2022/08/04 07:37:00;;;;;;;2.80;2.47;;;36.20;92.80;;;;;;5027485;28;20449;-72
2022/08/04 07:39:30;;;;;;;2.47;2.27;;;36.40;92.50;;;;;;5022875;28;20484;-71
2022/08/04 07:41:59;;;;;;;7.03;2.70;;;37.10;91.30;;;;;;5027106;28;20518;-72
2022/08/04 07:44:26;;;;;;;4.50;2.23;;;37.50;91.30;;;;;;5023146;28;20472;-72
2022/08/04 07:46:55;;;;;;;2.67;1.93;;;37.60;89.10;;;;;;5028643;28;20480;-72
2022/08/04 07:49:22;;;;;;;4.33;2.13;;;37.50;89.60;;;;;;5023580;28;20445;-71
2022/08/04 07:51:50;;;;;;;2.23;2.03;;;37.50;85.60;;;;;;5024770;28;20533;-72
2022/08/04 07:54:18;;;;;;;4.60;2.07;;;37.40;84.90;;;;;;5022868;28;20840;-72
2022/08/04 07:56:47;;;;;;;2.90;1.80;;;37.20;85.70;;;;;;5029960;28;20460;-72
2022/08/04 07:59:14;;;;;;;3.30;2.20;;;37.30;86.30;;;;;;5021560;28;20461;-72
2022/08/04 08:01:42;;;;;;;2.77;1.90;;;37.80;84.00;;;;;;5025785;28;20437;-73
2022/08/04 08:04:12;;;;;;;3.00;2.00;;;38.00;80.50;;;;;;5027262;28;20478;-72
2022/08/04 08:06:39;;;;;;;2.17;1.97;;;37.70;79.70;;;;;;5024231;28;21026;-73
2022/08/04 08:09:11;;;;;;;3.13;2.40;;;38.00;79.80;;;;;;5028250;28;21044;-72
2022/08/04 08:11:38;;;;;;;7.57;2.50;;;37.60;78.90;;;;;;5024074;28;20973;-73
2022/08/04 08:14:07;;;;;;;3.80;1.97;;;37.90;78.50;;;;;;5026778;28;20621;-72
2022/08/04 08:16:34;;;;;;;2.67;2.33;;;37.80;78.20;;;;;;5025812;28;20809;-73
2022/08/04 08:19:01;;;;;;;2.60;2.40;;;37.60;80.40;;;;;;5025115;28;20556;-72
2022/08/04 08:21:30;;;;;;;2.00;1.90;;;37.70;78.60;;;;;;5027661;28;20494;-73
2022/08/04 08:23:59;;;;;;;2.73;2.20;;;38.10;80.10;;;;;;5028668;28;20534;-73
2022/08/04 08:26:27;;;;;;;3.73;2.20;;;38.50;75.10;;;;;;5024739;28;20455;-73
2022/08/04 08:28:54;;;;;;;3.67;2.40;;;38.30;74.40;;;;;;5021989;28;20455;-73
2022/08/04 08:31:21;;;;;;;4.53;2.40;;;38.40;73.40;;;;;;5021845;28;20457;-73
2022/08/04 08:33:49;;;;;;;4.17;2.33;;;38.50;70.90;;;;;;5027705;28;20563;-73
2022/08/04 08:36:25;;;;;;;3.93;2.30;;;38.70;70.00;;;;;;5030557;28;20441;-73
2022/08/04 08:39:03;;;;;;;2.87;2.13;;;38.80;69.30;;;;;;5029554;28;20445;-73
2022/08/04 08:42:02;;;;;;;2.33;2.13;;;38.90;68.10;;;;;;5024127;28;20989;-73
2022/08/04 08:44:57;;;;;;;2.93;2.27;;;38.60;69.00;;;;;;5022016;28;20482;-73
2022/08/04 08:47:43;;;;;;;6.30;2.47;;;38.90;70.70;;;;;;4986812;28;20531;-73
2022/08/04 08:50:37;;;;;;;2.33;2.13;;;39.80;67.10;;;;;;5022207;28;20453;-73
2022/08/04 08:53:27;;;;;;;2.17;1.90;;;40.00;65.00;;;;;;4982210;28;20484;-74
2022/08/04 08:56:17;;;;;;;2.20;2.00;;;40.30;66.80;;;;;;5023469;28;20696;-72
2022/08/04 08:58:59;;;;;;;2.10;1.90;;;40.80;62.00;;;;;;5020101;28;20947;-73
2022/08/04 09:01:40;;;;;;;4.03;2.67;;;40.70;60.30;;;;;;5026829;28;20474;-72
2022/08/04 09:04:27;;;;;;;6.27;2.53;;;40.50;60.70;;;;;;5025074;28;21003;-73
2022/08/04 09:07:21;;;;;;;5.03;2.20;;;40.30;59.80;;;;;;5021223;28;21146;-73
2022/08/04 09:10:05;;;;;;;2.70;1.93;;;40.20;59.80;;;;;;5024382;28;20457;-73
2022/08/04 09:12:40;;;;;;;6.03;2.30;;;40.60;59.50;;;;;;5025340;28;20465;-72
2022/08/04 09:15:14;;;;;;;2.10;1.77;;;41.10;58.80;;;;;;5022382;28;20448;-73
2022/08/04 09:17:46;;;;;;;2.17;1.97;;;41.80;59.00;;;;;;5024508;28;20448;-73
2022/08/04 09:20:21;;;;;;;3.63;2.10;;;42.50;58.90;;;;;;5027358;28;20480;-73
2022/08/04 09:22:54;;;;;;;3.37;2.17;;;42.70;56.30;;;;;;5026662;28;20495;-73
2022/08/04 09:25:25;;;;;;;3.10;2.00;;;42.80;56.20;;;;;;5018382;28;20463;-73
2022/08/04 09:27:55;;;;;;;4.83;1.77;;;42.80;54.40;;;;;;5018104;28;20949;-72
2022/08/04 09:30:31;;;;;;;5.90;2.07;;;42.10;53.80;;;;;;5022651;28;20455;-72
2022/08/04 09:33:07;;;;;;;2.37;1.80;;;41.50;53.90;;;;;;5021683;28;20848;-73
2022/08/04 09:35:41;;;;;;;5.13;2.50;;;40.80;54.50;;;;;;5017044;28;20460;-72
2022/08/04 09:38:19;;;;;;;5.93;2.73;;;40.50;54.90;;;;;;5020760;28;20451;-72
2022/08/04 09:40:51;;;;;;;1.53;1.43;;;40.70;55.30;;;;;;5020140;28;20515;-72
2022/08/04 09:43:36;;;;;;;3.20;2.20;;;40.50;54.80;;;;;;5018583;28;21019;-72
2022/08/04 09:46:09;;;;;;;3.83;2.10;;;41.10;55.10;;;;;;5015919;28;20465;-73
2022/08/04 09:48:47;;;;;;;1.60;1.40;;;41.80;54.50;;;;;;5017138;28;20460;-72
2022/08/04 09:51:24;;;;;;;2.30;1.80;;;41.50;53.60;;;;;;5024600;28;20451;-72
2022/08/04 09:54:01;;;;;;;2.23;1.70;;;42.20;53.40;;;;;;5018439;28;20950;-72
2022/08/04 09:56:34;;;;;;;5.53;2.17;;;42.80;52.50;;;;;;5022969;28;20603;-72
2022/08/04 09:59:19;;;;;;;2.13;1.83;;;42.50;52.60;;;;;;5018610;28;20928;-72
2022/08/04 10:01:53;;;;;;;2.60;1.83;;;42.50;52.70;;;;;;5024702;28;20495;-72
2022/08/04 10:04:21;;;;;;;1.50;1.40;;;42.30;52.70;;;;;;5025146;28;20471;-72
2022/08/04 10:07:08;;;;;;;4.40;2.23;;;43.00;50.70;;;;;;5020897;28;20575;-72
2022/08/04 10:09:47;;;;;;;1.70;1.57;;;43.20;51.00;;;;;;5020509;28;21603;-73
2022/08/04 10:12:29;;;;;;;1.67;1.33;;;43.00;48.90;;;;;;5019749;28;20459;-73
2022/08/04 10:15:09;;;;;;;2.20;1.60;;;42.80;49.30;;;;;;5021959;28;20445;-73
2022/08/04 10:17:45;;;;;;;1.83;1.60;;;43.20;49.90;;;;;;5022461;28;20520;-73
2022/08/04 10:20:20;;;;;;;4.30;1.53;;;42.90;49.50;;;;;;5019607;28;20471;-73
2022/08/04 10:23:03;;;;;;;3.23;1.60;;;43.60;50.80;;;;;;5023228;28;20456;-73
2022/08/04 10:25:53;;;;;;;3.87;1.80;;;44.00;49.10;;;;;;5019873;28;20448;-73
2022/08/04 10:28:22;;;;;;;1.70;1.60;;;43.70;48.80;;;;;;5027461;28;20453;-72
2022/08/04 10:31:06;;;;;;;3.77;1.67;;;43.60;48.50;;;;;;5021073;28;21320;-73
2022/08/04 10:33:41;;;;;;;1.47;1.27;;;42.40;49.10;;;;;;5024366;28;20563;-73
2022/08/04 10:36:10;;;;;;;2.30;1.70;;;42.60;48.30;;;;;;5023645;28;21096;-72
2022/08/04 10:38:52;;;;;;;3.40;1.67;;;41.70;49.60;;;;;;5024748;28;20455;-73
2022/08/04 10:41:29;;;;;;;5.43;1.70;;;41.70;49.00;;;;;;5026890;28;20491;-72
2022/08/04 10:44:05;;;;;;;8.30;1.80;;;42.10;47.90;;;;;;5022736;28;20476;-72
2022/08/04 10:46:37;;;;;;;4.60;2.03;;;41.80;48.70;;;;;;5022941;28;20549;-73
2022/08/04 10:49:08;;;;;;;4.77;2.03;;;41.50;49.30;;;;;;5025581;28;20970;-72
2022/08/04 10:51:41;;;;;;;6.13;2.23;;;42.10;49.60;;;;;;5027195;28;20552;-73
2022/08/04 10:54:13;;;;;;;2.77;2.37;;;42.60;49.10;;;;;;5013306;28;20484;-72
2022/08/04 10:56:43;;;;;;;2.90;1.93;;;41.60;48.60;;;;;;5021828;28;20876;-72
2022/08/04 10:59:15;;;;;;;1.80;1.70;;;41.10;50.70;;;;;;5025492;28;20448;-72
2022/08/04 11:01:47;;;;;;;2.40;1.93;;;41.10;50.20;;;;;;5020708;28;21016;-72
2022/08/04 11:04:22;;;;;;;7.53;2.63;;;41.10;49.00;;;;;;5027687;28;20471;-72
2022/08/04 11:06:51;;;;;;;3.30;1.80;;;40.80;50.50;;;;;;5023708;28;20500;-72
2022/08/04 11:09:20;;;;;;;6.47;2.50;;;40.90;50.50;;;;;;5023280;28;20498;-73
2022/08/04 11:11:53;;;;;;;5.30;2.70;;;41.40;49.70;;;;;;5025544;28;20474;-71
2022/08/04 11:14:26;;;;;;;5.20;2.17;;;42.70;48.40;;;;;;5024936;28;20822;-71
2022/08/04 11:16:59;;;;;;;2.53;1.77;;;42.60;49.00;;;;;;5022837;28;20437;-72
2022/08/04 11:19:32;;;;;;;4.87;2.00;;;42.00;50.30;;;;;;5023594;28;20464;-71
2022/08/04 11:22:05;;;;;;;7.03;2.83;;;41.90;48.90;;;;;;5023419;28;20592;-71
2022/08/04 11:24:40;;;;;;;3.43;2.70;;;41.40;48.80;;;;;;5026858;28;20436;-71
2022/08/04 11:27:14;;;;;;;5.43;2.30;;;40.10;50.70;;;;;;5018344;28;20460;-71
2022/08/04 11:29:51;;;;;;;4.23;2.57;;;39.50;51.10;;;;;;5024843;28;20535;-71
2022/08/04 11:32:24;;;;;;;4.73;2.40;;;38.80;51.10;;;;;;5026417;28;21180;-71
2022/08/04 11:34:57;;;;;;;4.80;2.70;;;38.20;51.90;;;;;;5023632;28;20437;-71
2022/08/04 11:37:29;;;;;;;6.73;2.30;;;38.30;52.10;;;;;;5015733;28;20472;-71
2022/08/04 11:40:02;;;;;;;10.40;2.30;;;39.00;51.30;;;;;;5022788;28;20958;-71
2022/08/04 11:42:36;;;;;;;2.20;1.83;;;39.00;51.10;;;;;;5026946;28;20496;-71
2022/08/04 11:45:05;;;;;;;5.67;2.50;;;38.90;51.50;;;;;;5021888;28;20813;-70
2022/08/04 11:47:46;;;;;;;5.33;2.50;;;39.30;51.60;;;;;;5024980;28;20441;-71
2022/08/04 11:50:26;;;;;;;2.17;1.97;;;39.10;51.80;;;;;;5023035;28;20444;-71
2022/08/04 11:52:56;;;;;;;2.77;2.13;;;38.30;51.50;;;;;;5023084;28;20464;-71
2022/08/04 11:55:27;;;;;;;7.70;3.60;;;37.80;52.50;;;;;;5026981;28;20537;-71
2022/08/04 11:57:54;;;;;;;4.43;1.80;;;37.10;54.00;;;;;;5023262;28;20445;-71
2022/08/04 12:00:25;;;;;;;4.40;2.40;;;36.90;53.50;;;;;;5027009;28;20441;-71
2022/08/04 12:06:10;;;;;;;5.40;2.27;;;37.10;54.60;;;;;;5089341;27;20638;-72
2022/08/04 12:08:51;;;;;;;8.33;2.17;;;37.40;54.80;;;;;;5095834;28;20536;-71
2022/08/04 12:11:28;;;;;;;5.93;2.30;;;37.30;55.00;;;;;;5088283;28;20531;-71
2022/08/04 12:14:09;;;;;;;1.70;1.40;;;37.20;55.40;;;;;;5093879;28;20458;-71
2022/08/04 12:16:42;;;;;;;6.77;2.30;;;37.20;55.90;;;;;;5092632;28;20824;-71
2022/08/04 12:19:17;;;;;;;2.27;1.90;;;37.60;55.30;;;;;;5099940;28;20534;-71
2022/08/04 12:21:50;;;;;;;10.43;2.27;;;37.60;55.80;;;;;;5099057;28;20448;-72
2022/08/04 12:24:21;;;;;;;4.70;2.00;;;37.20;56.60;;;;;;5098147;28;20490;-72
2022/08/04 12:26:52;;;;;;;6.10;2.83;;;36.70;57.40;;;;;;5092413;28;20457;-71
2022/08/04 12:29:22;;;;;;;3.80;2.20;;;36.20;59.50;;;;;;5098163;28;20470;-72
2022/08/04 12:31:53;;;;;;;4.60;2.80;;;35.80;59.90;;;;;;5092742;28;20473;-72
2022/08/04 12:34:29;;;;;;;11.90;2.60;;;35.50;61.00;;;;;;5098672;28;20457;-72
2022/08/04 12:37:03;;;;;;;6.30;2.40;;;35.00;63.40;;;;;;5096774;28;20434;-71
2022/08/04 12:39:31;;;;;;;4.73;2.17;;;35.20;64.50;;;;;;5088447;28;20464;-72
2022/08/04 12:42:03;;;;;;;4.33;3.07;;;35.30;63.10;;;;;;5098837;28;20457;-72
2022/08/04 12:44:35;;;;;;;5.70;1.80;;;35.10;63.80;;;;;;5098180;28;20487;-72
2022/08/04 12:47:04;;;;;;;5.20;2.30;;;35.10;64.70;;;;;;5093197;28;20550;-72
2022/08/04 12:49:34;;;;;;;3.30;2.03;;;35.00;65.60;;;;;;5101905;28;20445;-72
2022/08/04 12:52:06;;;;;;;5.80;2.37;;;34.70;66.00;;;;;;5097878;28;20449;-72
2022/08/04 12:54:35;;;;;;;3.50;2.00;;;34.40;66.00;;;;;;5102039;28;20515;-72
2022/08/04 12:57:05;;;;;;;5.27;2.20;;;34.00;67.20;;;;;;5095294;28;20454;-72
2022/08/04 12:59:38;;;;;;;6.70;2.20;;;34.20;68.20;;;;;;5099442;28;20469;-72
2022/08/04 13:02:09;;;;;;;5.40;2.33;;;34.20;68.60;;;;;;5095766;28;20438;-73
2022/08/04 13:04:41;;;;;;;6.43;2.50;;;33.90;69.50;;;;;;5096798;28;20551;-72
2022/08/04 13:07:15;;;;;;;5.67;2.50;;;33.90;71.50;;;;;;5096212;28;20493;-70
2022/08/04 13:09:42;;;;;;;2.47;2.27;;;33.80;71.60;;;;;;5093475;28;20467;-72
2022/08/04 13:12:13;;;;;;;3.30;2.80;;;33.60;72.60;;;;;;5095637;28;20446;-72
2022/08/04 13:14:43;;;;;;;2.50;1.97;;;33.40;72.80;;;;;;5091643;28;20912;-72
2022/08/04 13:17:10;;;;;;;3.93;2.10;;;33.00;73.40;;;;;;5085656;28;20938;-72
2022/08/04 13:19:38;;;;;;;2.97;2.23;;;33.00;73.50;;;;;;5084581;28;20546;-70
2022/08/04 13:22:06;;;;;;;11.10;3.00;;;32.70;75.70;;;;;;5082905;28;20529;-70
2022/08/04 13:24:37;;;;;;;3.63;2.47;;;32.70;77.70;;;;;;5086597;28;20481;-71
2022/08/04 13:27:08;;;;;;;6.20;2.20;;;33.30;78.70;;;;;;5082154;28;20453;-71
2022/08/04 13:29:38;;;;;;;3.97;2.70;;;33.90;78.90;;;;;;5086815;28;20975;-71
2022/08/04 13:32:06;;;;;;;4.17;2.87;;;34.40;78.60;;;;;;5082918;28;20462;-71
2022/08/04 13:34:34;;;;;;;5.60;2.87;;;35.10;77.80;;;;;;5087380;28;20491;-71